PlanetSide 2 Outfit Stats - Dropping Purple Smoke - PlanetSide Universe
PSU Social Facebook Twitter Twitter YouTube Steam TwitchTV
PlanetSide Universe
PSU: Posting goofy quotes since 2003.
Home Forum Chat Wiki Social AGN PS2 Stats
Notices
Data Link: PlanetSide 2 Outfit Stats
VS

Dropping Purple Smoke [DPSO]

Connery

Recruiting:

Leader: MasTapy

Created: 2013-01-11 07:20 PM

[DPSO] PlanetSide 2 Wiki

[DPSO] PSU Social Group

Total Chars XP Kills Deaths Time Played
747 7851732787 10972046 7187134 21122d 17h 48m
Average BR Average XP Average Kills Average Deaths Average Time Played
60 10511021 14688 9621 28d 6h 39m
Online Online Last 30 Days Online Last 7 Days Leaderboard Rank Download
2 (0.27%) 356 (47.66%) 199 (26.64%) #446 CSV Export Roster

# Name Rank BR Play Time Member Since Reverse Sort Order Last Login Online
1 Salvaria Recruit 50 16d 22h 54m Today 03:45 AM Today 03:41 AM No
2 Diviore Recruit 62 19d 1h 50m Yesterday 11:24 PM Today 04:41 AM No
3 HolyCrusader1 Recruit 34 7d 1h 52m Yesterday 11:20 PM Today 05:16 AM No
4 VeggieMixx Recruit 22 1d 1h 31m 2020-05-28 09:08 PM Today 01:21 AM No
5 TandBincVS Recruit 45 3d 4h 57m 2020-05-27 08:01 PM 2020-05-28 10:34 AM No
6 Azriet Recruit 28 1d 21h 9m 2020-05-26 02:20 AM 2020-05-29 04:49 AM No
7 Gibsalot Recruit 71 12d 18h 18m 2020-05-26 01:31 AM Yesterday 09:06 PM No
8 MrTb0nE Recruit 34 3d 13h 10m 2020-05-26 01:29 AM Today 12:49 AM No
9 FalcoArnold Auraxium Soldier 115 58d 16h 4m 2020-05-25 09:25 PM 2020-05-27 08:53 PM No
10 R407CGAS Recruit 17 0d 2h 7m 2020-05-24 03:29 PM Yesterday 08:21 PM No
11 MaesterGamgee Veteran 81 35d 8h 2m 2020-05-24 12:03 AM 2020-05-23 09:46 PM No
12 StarfighterVanu Recruit 11 0d 3h 11m 2020-05-22 11:42 PM Yesterday 02:35 AM No
13 Pochiniki Recruit 17 0d 4h 25m 2020-05-22 11:42 PM 2020-05-26 06:07 PM No
14 SirenShot Recruit 22 1d 2h 14m 2020-05-20 11:55 PM 2020-05-22 02:23 AM No
15 Pseudokinetics Recruit 50 6d 2h 50m 2020-05-20 09:01 PM 2020-05-25 03:54 PM No
16 FakerWhatWasThat Recruit 17 0d 11h 34m 2020-05-19 09:23 PM Yesterday 08:47 PM No
17 Zkiel Recruit 65 20d 4h 18m 2020-05-19 09:23 PM 2020-05-19 07:29 PM No
18 CCSnoop Recruit 31 1d 7h 54m 2020-05-17 12:30 AM 2020-05-29 07:04 PM No
19 Zhaelek Recruit 35 2d 13h 37m 2020-05-17 12:30 AM 2020-05-27 08:21 PM No
20 SFiveVSC Recruit 30 1d 10h 23m 2020-05-17 12:23 AM 2020-05-19 09:32 PM No
21 Viqimias Recruit 51 8d 4h 30m 2020-05-16 10:32 PM Today 12:50 AM No
22 BlueGeneGaming Recruit 15 0d 12h 49m 2020-05-16 01:38 AM 2020-05-20 08:53 PM No
23 RustyPickleSMK Veteran 79 27d 20h 12m 2020-05-16 12:55 AM Yesterday 04:18 PM No
24 Distuth Recruit 13 0d 10h 37m 2020-05-15 08:41 PM 2020-05-18 07:51 PM No
25 GenysisVS Recruit 41 3d 23h 20m 2020-05-15 08:40 PM Today 07:31 AM No
26 Sxxy2 Recruit 43 9d 21h 17m 2020-05-14 05:14 PM 2020-05-14 04:52 PM No
27 Yoloswagginshrtbus Recruit 21 0d 9h 52m 2020-05-14 02:03 AM 2020-05-20 08:28 AM No
28 DPSOwO Advisor 1 0d 1h 49m 2020-05-14 12:01 AM Yesterday 01:18 AM No
29 Frivolously Recruit 12 0d 6h 44m 2020-05-13 11:16 PM 2020-05-15 09:56 PM No
30 helljumperjoe Recruit 16 0d 17h 38m 2020-05-13 11:16 PM 2020-05-17 11:29 PM No
31 LENSHU Recruit 35 3d 14h 41m 2020-05-13 11:16 PM 2020-05-24 07:23 AM No
32 Knowlife Recruit 22 0d 18h 51m 2020-05-13 11:16 PM Yesterday 10:34 PM No
33 SammmyB Recruit 34 0d 23h 33m 2020-05-13 09:03 PM 2020-05-28 07:27 PM No
34 Wraxc Recruit 16 0d 6h 56m 2020-05-13 09:03 PM 2020-05-27 09:43 AM No
35 ChinaRising Recruit 95 15d 10h 17m 2020-05-13 09:03 PM 2020-05-23 01:55 AM No
36 AddiVS Recruit 15 0d 6h 31m 2020-05-12 10:40 PM 2020-05-25 04:45 AM No
37 NyaaOwO Recruit 17 0d 7h 11m 2020-05-12 08:47 PM 2020-05-24 02:18 AM No
38 wefyewg Recruit 7 0d 1h 51m 2020-05-12 08:18 PM 2020-05-12 12:07 AM No
39 DikMeFookinAnoose Recruit 41 2d 2h 14m 2020-05-11 11:22 PM 2020-05-14 02:53 PM No
40 Grippay Recruit 76 18d 6h 45m 2020-05-11 06:05 PM 2020-05-28 01:20 PM No
41 Pathfighter Member 96 45d 9h 7m 2020-05-09 03:33 AM Today 04:42 AM No
42 JcCN Recruit 103 35d 14h 41m 2020-05-08 09:11 PM 2020-05-23 08:01 PM No
43 iAcuta Recruit 42 7d 13h 28m 2020-05-08 09:06 PM 2020-05-10 03:34 PM No
44 VSDominicat Recruit 7 0d 1h 15m 2020-05-08 07:07 PM 2020-05-21 04:20 PM No
45 Aremna Recruit 46 6d 23h 32m 2020-05-07 03:55 AM Yesterday 08:57 PM No
46 ChazzJenkies Recruit 38 5d 13h 21m 2020-05-07 03:55 AM 2020-05-27 09:13 PM No
47 LeCurryNinja Recruit 65 10d 3h 54m 2020-05-07 03:55 AM 2020-05-25 03:41 AM No
48 Drogen Recruit 85 27d 15h 27m 2020-05-07 03:55 AM Yesterday 11:39 PM No
49 MaxLivesMatter Veteran 14 0d 2h 45m 2020-05-05 08:18 PM Yesterday 08:14 PM No
50 Bradshawboi Recruit 28 2d 0h 51m 2020-05-05 08:18 PM 2020-05-07 08:32 AM No
51 chaw2929 Recruit 31 4d 8h 3m 2020-05-05 01:30 AM 2020-05-27 07:31 PM No
52 DrHumpScrumptious Member 64 4d 14h 56m 2020-05-04 06:50 PM Yesterday 06:59 PM No
53 DerpyDooooo Recruit 26 2d 12h 33m 2020-05-04 01:46 AM 2020-05-28 08:48 PM No
54 Keskit Recruit 70 111d 17h 0m 2020-05-04 01:32 AM Yesterday 10:31 PM No
55 GETdaCAMERA Member 75 18d 19h 36m 2020-05-03 03:53 AM Yesterday 10:38 PM No
56 NelfarionSwain Recruit 6 0d 2h 35m 2020-05-02 11:49 PM 2020-05-02 10:50 PM No
57 Varammar2 Recruit 39 2d 16h 19m 2020-05-02 11:49 PM 2020-05-09 09:17 PM No
58 Piiiiiiii Recruit 32 1d 17h 16m 2020-05-02 11:49 PM 2020-05-09 09:36 PM No
59 MetaIVS Recruit 23 0d 3h 59m 2020-05-02 02:26 AM 2020-05-18 06:58 PM No
60 MakingCofveve Staff 92 21d 16h 44m 2020-05-01 11:02 PM Yesterday 08:56 PM No
61 Karanaa Member 38 9d 18h 4m 2020-05-01 10:46 PM 2020-05-14 11:08 PM No
62 Kvidarr Recruit 25 1d 18h 52m 2020-05-01 10:41 PM Yesterday 11:16 PM No
63 BlooSammichs Recruit 68 11d 0h 44m 2020-05-01 09:26 PM Yesterday 08:03 PM No
64 NEOMARA Recruit 12 0d 7h 11m 2020-05-01 02:50 AM 2020-05-01 02:50 AM No
65 GetOutOfDodge Recruit 96 65d 19h 11m 2020-05-01 01:16 AM 2020-05-29 07:57 PM No
66 lilsaintos Recruit 51 5d 17h 25m 2020-04-30 07:53 PM 2020-05-11 07:45 AM No
67 HitTheDuck Recruit 13 0d 8h 12m 2020-04-30 07:52 PM 2020-05-01 02:12 AM No
68 CHERRY2008 Recruit 14 0d 5h 58m 2020-04-30 02:42 AM 2020-05-06 01:29 AM No
69 gvhjjhkhjk Recruit 58 6d 20h 48m 2020-04-29 11:10 PM 2020-05-11 07:29 AM No
70 John80skPurple Recruit 54 9d 17h 15m 2020-04-29 11:09 PM Today 04:23 AM No
71 AlephNuII Member 50 5d 2h 51m 2020-04-29 09:55 PM Today 04:19 AM No
72 CerealMcSpoonin Recruit 37 5d 2h 27m 2020-04-27 11:35 PM 2020-05-13 12:44 AM No
73 DaybreakSupportTeam Recruit 6 0d 0h 45m 2020-04-27 11:35 PM 2020-04-27 10:00 AM No
74 spq199999 Recruit 27 2d 1h 2m 2020-04-27 03:20 AM 2020-04-28 01:58 AM No
75 LigmaSugmaSugondese Member 95 19d 7h 7m 2020-04-26 08:03 PM Yesterday 08:26 PM No
76 CaptChampagne Recruit 43 6d 7h 27m 2020-04-26 07:57 PM Today 05:27 AM No
77 Sooo0EZ Recruit 52 9d 4h 6m 2020-04-26 02:30 AM 2020-05-29 03:07 PM No
78 ThatFridgeOP Recruit 25 0d 9h 18m 2020-04-26 02:28 AM 2020-04-26 01:56 AM No
79 wheelyj Recruit 75 20d 10h 17m 2020-04-25 01:44 AM 2020-05-20 03:23 AM No
80 StradVS Recruit 25 2d 12h 25m 2020-04-25 01:44 AM 2020-05-11 10:03 PM No
81 CryptoTek Recruit 76 21d 1h 4m 2020-04-24 11:15 PM 2020-05-01 12:06 AM No
82 AODPK Recruit 44 5d 18h 30m 2020-04-24 11:13 PM Yesterday 07:29 PM No
83 AmaterasuDN Recruit 43 5d 3h 10m 2020-04-24 12:00 AM 2020-05-01 09:19 PM No
84 GateWG Recruit 11 0d 10h 28m 2020-04-23 10:44 PM 2020-04-30 09:46 PM No
85 FallegonVS Recruit 19 0d 8h 21m 2020-04-23 10:44 PM 2020-05-24 12:22 PM No
86 VytalVS Recruit 55 6d 20h 54m 2020-04-23 07:40 PM Today 05:36 AM No
87 JunVS Recruit 94 42d 5h 54m 2020-04-22 11:25 PM 2020-05-29 08:05 PM No
88 Martanae Member 57 6d 15h 45m 2020-04-22 11:06 PM 2020-05-29 10:00 PM No
89 Introna Recruit 63 4d 10h 53m 2020-04-22 03:19 AM Yesterday 07:48 PM No
90 ProbablyHypochaeris Recruit 20 0d 12h 53m 2020-04-22 01:46 AM 2020-05-02 11:00 PM No
91 WoOw0 Recruit 22 0d 23h 18m 2020-04-21 10:35 PM 2020-05-10 02:14 AM No
92 QuantaviousVANUS Recruit 23 1d 8h 8m 2020-04-21 03:02 AM 2020-05-08 12:33 AM No
93 Hdawgg Recruit 24 1d 13h 13m 2020-04-21 03:02 AM 2020-05-08 12:20 AM No
94 Fulstop Member 84 18d 20h 53m 2020-04-20 10:30 PM Yesterday 07:55 PM No
95 CkillNO2 Recruit 34 2d 12h 39m 2020-04-20 02:20 AM 2020-05-22 09:53 PM No
96 Haidran Recruit 20 0d 12h 57m 2020-04-19 04:48 AM 2020-04-26 02:41 AM No
97 Boyinachair Recruit 35 2d 5h 2m 2020-04-19 01:17 AM 2020-04-19 01:50 PM No
98 ZiAi Recruit 36 2d 23h 23m 2020-04-19 01:17 AM 2020-05-12 11:05 AM No
99 KiraStardust Recruit 30 2d 1h 39m 2020-04-18 02:15 AM 2020-05-18 09:38 AM No
100 Moplin Recruit 96 35d 19h 16m 2020-04-17 09:24 PM 2020-05-21 06:29 PM No
101 NULLNAME Recruit 74 8d 21h 2m 2020-04-17 06:22 PM Today 01:50 AM No
102 DrakeKoeth Recruit 32 4d 15h 11m 2020-04-17 03:01 AM 2020-05-18 11:45 PM No
103 qhy233 Recruit 100 69d 3h 14m 2020-04-17 03:00 AM 2020-05-16 02:03 AM No
104 BespeckledCeph Recruit 32 1d 21h 56m 2020-04-17 03:00 AM 2020-05-22 09:23 PM No
105 AlphaSierra11 Recruit 45 5d 22h 18m 2020-04-16 04:15 PM Today 05:46 AM Yes
106 ColeTrainMane Recruit 32 2d 8h 6m 2020-04-16 04:15 PM 2020-05-29 07:39 PM No
107 adamxxxVS Member 74 32d 11h 20m 2020-04-15 12:55 AM Yesterday 10:42 PM No
108 AGENT579 Recruit 22 1d 7h 55m 2020-04-14 09:00 PM 2020-05-26 05:35 AM No
109 sickducatis Member 46 4d 3h 17m 2020-04-14 08:59 PM 2020-05-20 08:04 PM No
110 Feladreah Recruit 23 0d 23h 49m 2020-04-13 10:58 PM 2020-05-03 12:49 AM No
111 Chanlim2000 Recruit 35 2d 4h 50m 2020-04-13 08:05 PM 2020-05-07 06:33 AM No
112 Lexarf Recruit 32 4d 12h 57m 2020-04-13 08:05 PM Today 07:38 AM No
113 Xilouette Recruit 39 4d 6h 46m 2020-04-12 10:35 PM 2020-04-24 05:28 PM No
114 Ston3RVS Recruit 22 0d 18h 37m 2020-04-12 07:25 AM 2020-04-27 03:21 PM No
115 Dazzmo27 Recruit 72 20d 8h 50m 2020-04-12 07:24 AM 2020-05-26 05:37 AM No
116 CloudyBoii Recruit 13 0d 13h 9m 2020-04-12 12:20 AM 2020-05-09 11:02 PM No
117 JoeThrowsRope Recruit 47 4d 2h 53m 2020-04-12 12:19 AM 2020-05-26 09:37 PM No
118 SnatchBack Recruit 15 0d 18h 52m 2020-04-12 12:19 AM 2020-05-29 01:23 AM No
119 Aboleth Veteran 89 41d 2h 8m 2020-04-11 10:44 PM Yesterday 08:52 PM No
120 notHobbes Auraxium Soldier 33 1d 17h 14m 2020-04-11 08:04 PM 2020-05-09 07:32 PM No
121 KyoshuKurotsuki Recruit 89 75d 2h 21m 2020-04-10 10:32 PM 2020-04-11 11:31 PM No
122 adamisgames Recruit 34 3d 13h 23m 2020-04-10 10:32 PM Yesterday 10:38 PM No
123 Lumentium Veteran 101 54d 21h 47m 2020-04-10 08:06 PM 2020-04-10 04:03 PM No
124 AntonVS Auraxium Soldier 54 3d 15h 4m 2020-04-09 08:54 PM 2020-05-16 10:38 PM No
125 TheAcris Member 72 16d 23h 45m 2020-04-09 06:11 PM Today 01:19 AM No
126 MaxTBag125 Recruit 42 3d 15h 46m 2020-04-09 06:10 PM 2020-04-24 09:43 PM No
127 Psychobats Recruit 38 2d 4h 57m 2020-04-09 06:10 PM 2020-04-27 06:50 AM No
128 Player3 Recruit 62 18d 12h 45m 2020-04-09 06:09 PM 2020-05-21 01:42 AM No
129 PLAmomo Recruit 118 85d 0h 17m 2020-04-09 06:09 PM Yesterday 11:22 PM No
130 xGables Auraxium Soldier 19 28d 14h 58m 2020-04-09 01:52 AM 2020-05-16 10:28 PM No
131 DoctorDangle Auraxium Soldier 4 0d 0h 56m 2020-04-08 11:36 PM 2020-04-08 10:17 PM No
132 Kaliesa Member 69 10d 12h 56m 2020-04-08 07:24 PM Yesterday 08:01 PM No
133 IcemanBecks Member 86 14d 14h 35m 2020-04-08 07:24 PM Yesterday 07:54 PM No
134 ChocoIateVS Recruit 78 17d 20h 48m 2020-04-08 07:24 PM 2020-05-18 12:01 AM No
135 Lordfailz Recruit 40 2d 5h 20m 2020-04-08 07:24 PM 2020-05-28 07:23 AM No
136 HentaiEnthusiast69 Member 96 16d 23h 15m 2020-04-07 09:00 PM Today 12:45 AM No
137 898slav Recruit 21 0d 13h 41m 2020-04-07 09:00 PM Yesterday 11:51 PM No
138 FutureProof8500 Recruit 36 5d 15h 16m 2020-04-07 04:26 PM 2020-05-15 04:56 AM No
139 ThisMouthis20Bucks Member 86 19d 13h 31m 2020-04-07 04:26 PM Yesterday 10:24 PM No
140 DiscoBreeki Recruit 58 5d 19h 18m 2020-04-06 09:22 PM 2020-05-25 04:56 AM No
141 crizzzzz Recruit 40 1d 16h 48m 2020-04-06 07:00 PM 2020-05-18 11:30 PM No
142 KernelZo Recruit 100 74d 17h 54m 2020-04-06 01:07 AM Yesterday 08:46 PM No
143 littlymctitty05 Recruit 41 5d 7h 52m 2020-04-05 04:42 PM 2020-05-19 06:39 AM No
144 DevilStakess Recruit 76 57d 20h 38m 2020-04-05 04:38 PM Yesterday 09:01 PM No
145 Mugger23 Recruit 79 12d 21h 3m 2020-04-05 04:32 PM 2020-04-10 05:40 PM No
146 TRxSPY Recruit 63 6d 8h 53m 2020-04-05 04:32 PM Today 12:55 AM No
147 CLOCKWORKxPURPLE Recruit 14 0d 6h 51m 2020-04-05 04:32 PM 2020-04-06 02:42 AM No
148 BlueSmok420 Recruit 68 26d 22h 7m 2020-04-05 04:29 PM 2020-04-25 06:41 AM No
149 B166ERPrime Recruit 51 4d 9h 7m 2020-04-05 05:30 AM 2020-05-19 08:01 PM No
150 KittEHJ Recruit 54 6d 6h 7m 2020-04-04 08:25 AM 2020-04-16 08:34 AM No
151 BmoLok Recruit 29 1d 16h 27m 2020-04-03 11:55 PM 2020-05-02 09:05 PM No
152 ShakugannoShana1 Recruit 50 3d 6h 30m 2020-04-03 07:48 PM 2020-05-22 02:02 PM No
153 Evilpope Recruit 54 11d 3h 38m 2020-04-03 04:59 PM 2020-05-07 09:18 PM No
154 AlienScienTEST Recruit 28 0d 11h 18m 2020-04-03 04:57 PM 2020-04-22 02:48 PM No
155 GenericMonarch Member 67 13d 10h 16m 2020-04-03 06:38 AM 2020-05-17 06:48 AM No
156 BlooBl0o Recruit 56 4d 14h 21m 2020-04-02 08:41 PM Today 07:36 AM No
157 OMGITSGOZILAAA Recruit 43 3d 4h 23m 2020-04-01 11:28 PM 2020-05-20 08:50 PM No
158 LvenG Recruit 80 53d 17h 52m 2020-04-01 11:24 PM 2020-05-29 08:21 AM No
159 Reaper0z Member 88 9d 13h 48m 2020-04-01 11:21 PM 2020-05-03 05:12 AM No
160 Chemiculus Recruit 31 1d 11h 7m 2020-04-01 11:20 PM 2020-04-01 05:58 PM No
161 PhatazJay Recruit 98 32d 11h 54m 2020-04-01 09:13 PM 2020-04-10 03:48 AM No
162 IaqtonVS Member 69 8d 4h 46m 2020-04-01 07:34 PM 2020-05-27 09:03 AM No
163 TheWelfareBear Recruit 27 1d 11h 55m 2020-03-31 09:09 PM 2020-04-22 09:04 AM No
164 Artaxas Recruit 19 0d 19h 21m 2020-03-31 09:05 PM 2020-04-23 06:41 PM No
165 SquinchGaming Recruit 24 0d 15h 44m 2020-03-31 04:45 AM 2020-04-27 05:26 PM No
166 CertifiedSuck Recruit 33 1d 1h 8m 2020-03-31 04:36 AM 2020-05-23 08:36 PM No
167 xFishbone Recruit 23 1d 12h 32m 2020-03-31 04:32 AM 2020-04-09 11:22 AM No
168 SireFredrickk Recruit 8 0d 3h 9m 2020-03-30 08:57 PM 2020-05-14 05:24 PM No
169 Blaz3VS Recruit 51 3d 15h 36m 2020-03-30 12:43 AM 2020-05-10 09:19 PM No
170 PoosySplooshy Recruit 9 0d 1h 59m 2020-03-29 09:55 PM 2020-03-29 09:48 PM No
171 KR15 Recruit 39 4d 14h 11m 2020-03-29 09:54 PM Yesterday 09:51 AM No
172 supsoups Recruit 46 12d 9h 5m 2020-03-29 09:53 PM 2020-04-12 11:45 PM No
173 Bonusbo Recruit 18 0d 14h 56m 2020-03-29 03:53 PM 2020-05-29 12:30 PM No
174 ImperviousVS Recruit 26 48d 21h 47m 2020-03-28 11:36 PM 2020-05-13 07:07 PM No
175 8BitSaint Recruit 24 1d 1h 39m 2020-03-28 11:36 PM 2020-04-22 02:59 PM No
176 ZhanYuCY Auraxium Soldier 99 9d 2h 1m 2020-03-28 09:31 PM 2020-05-17 09:52 PM No
177 sillyadrian Recruit 73 20d 4h 28m 2020-03-27 10:57 PM 2020-05-06 02:52 AM No
178 MPower001 Recruit 100 21d 11h 15m 2020-03-26 03:38 PM 2020-05-22 05:29 PM No
179 iMightCow Recruit 72 81d 21h 24m 2020-03-26 02:02 AM 2020-05-15 09:15 PM No
180 lightspeddaniel11 Recruit 15 0d 3h 20m 2020-03-25 09:21 PM 2020-03-31 09:41 PM No
181 dudedont Recruit 29 0d 15h 47m 2020-03-25 05:44 PM 2020-04-02 11:46 PM No
182 Dreadiant Recruit 81 15d 13h 29m 2020-03-25 03:20 AM 2020-05-07 03:40 PM No
183 epictaco3000 Recruit 19 0d 7h 2m 2020-03-24 07:45 PM 2020-04-01 01:18 PM No
184 xingshuai Recruit 45 4d 13h 31m 2020-03-24 01:33 AM 2020-05-08 03:47 AM No
185 Ebbtides Recruit 98 32d 4h 13m 2020-03-24 01:33 AM 2020-05-20 11:31 AM No
186 DroppingPurpleGlows Member 9 0d 0h 38m 2020-03-23 11:35 PM 2020-03-23 11:33 PM No
187 Killerxp100 Recruit 63 104d 3h 41m 2020-03-23 10:53 PM Yesterday 08:19 PM No
188 Archon Recruit 20 38d 16h 10m 2020-03-23 09:01 PM 2020-05-05 06:05 PM No
189 Olecran0n Recruit 91 26d 6h 13m 2020-03-23 05:00 PM 2020-05-08 06:58 AM No
190 Bjjorrn Recruit 30 1d 12h 27m 2020-03-22 10:20 PM 2020-05-29 11:43 PM No
191 KUISHEXIAODUI Recruit 36 2d 21h 42m 2020-03-22 03:02 AM 2020-05-08 12:38 AM No
192 ZebraTreats Member 82 14d 13h 26m 2020-03-22 01:38 AM 2020-04-22 11:18 PM No
193 xMetroid9x Recruit 70 30d 10h 52m 2020-03-21 11:05 PM Yesterday 08:15 PM No
194 Prutang Recruit 10 0d 4h 6m 2020-03-21 10:57 PM 2020-05-07 11:58 AM No
195 REE245 Recruit 21 1d 18h 54m 2020-03-21 12:20 AM Yesterday 01:05 AM No
196 DEADHANDZ Recruit 7 0d 1h 45m 2020-03-21 12:03 AM 2020-04-30 03:13 PM No
197 SeriouslyDontShootMania Recruit 95 21d 0h 22m 2020-03-19 01:00 AM Yesterday 01:14 AM No
198 Candysniffer Recruit 31 1d 17h 36m 2020-03-19 12:55 AM 2020-05-12 11:41 AM No
199 StaticRagerVS Recruit 55 5d 11h 14m 2020-03-19 12:07 AM 2020-05-21 09:16 PM No
200 jjwatt Recruit 39 5d 5h 33m 2020-03-18 06:00 PM 2020-03-18 05:07 PM No
201 White1obster Member 79 10d 20h 46m 2020-03-17 10:50 PM 2020-05-27 09:01 PM No
202 SgtQman19 Recruit 85 43d 21h 24m 2020-03-17 10:49 PM Yesterday 04:53 PM No
203 BahlitzVS Veteran 91 24d 2h 53m 2020-03-17 08:59 PM 2020-05-16 06:59 PM No
204 DaggerbladeVS Auraxium Soldier 41 0d 16h 52m 2020-03-17 08:45 PM 2020-04-11 11:13 PM No
205 VSThompson153 Auraxium Soldier 64 5d 11h 26m 2020-03-17 08:31 PM 2020-03-28 02:01 PM No
206 FunblobVs Recruit 25 0d 14h 21m 2020-03-17 06:53 PM 2020-03-17 06:41 PM No
207 TunaNoCrust Recruit 17 0d 15h 26m 2020-03-17 06:53 PM 2020-05-15 03:48 PM No
208 DogUpMyKungpow Auraxium Soldier 51 3d 23h 7m 2020-03-17 06:53 PM 2020-03-17 08:33 PM No
209 MMoocowsVS Member 24 1d 0h 43m 2020-03-17 12:38 AM 2020-05-29 09:52 PM No
210 MerkabaVS Auraxium Soldier 82 15d 11h 16m 2020-03-16 08:17 PM 2020-04-14 03:50 PM No
211 KvotheSixString Recruit 41 2d 4h 23m 2020-03-16 11:57 AM 2020-04-19 08:27 PM No
212 UberVajajaStache Veteran 57 5d 6h 31m 2020-03-15 10:15 PM 2020-05-20 08:51 PM No
213 Kalul Veteran 67 26d 7h 57m 2020-03-15 10:10 PM 2020-03-23 04:36 PM No
214 PiercinRain87 Recruit 61 15d 7h 2m 2020-03-15 03:46 AM Yesterday 08:38 PM No
215 HAZMATMKIV Recruit 112 49d 12h 14m 2020-03-15 02:47 AM 2020-04-25 06:01 AM No
216 misterkittiesVS Recruit 46 18d 8h 48m 2020-03-14 10:19 PM Yesterday 08:37 PM No
217 DLMs Recruit 36 4d 11h 16m 2020-03-14 10:19 PM 2020-05-09 09:46 PM No
218 LavenderDeath Recruit 63 11d 17h 5m 2020-03-14 01:42 PM 2020-05-14 10:24 PM No
219 ChristSavesVS Auraxium Soldier 44 2d 23h 17m 2020-03-14 02:31 AM 2020-05-16 10:19 PM No
220 CmdrCrashxVS Auraxium Soldier 112 69d 13h 18m 2020-03-13 10:11 PM 2020-05-29 09:30 PM No
221 CAT32 Auraxium Soldier 66 12d 11h 12m 2020-03-13 08:14 PM 2020-05-29 07:26 PM No
222 LeftyTheMad Auraxium Soldier 78 12d 0h 1m 2020-03-13 07:56 PM 2020-04-25 10:04 PM No
223 SpandexHydra Auraxium Soldier 40 1d 20h 19m 2020-03-13 07:56 PM 2020-04-11 09:47 PM No
224 0DiamondVS Auraxium Soldier 61 7d 12h 59m 2020-03-13 06:19 PM 2020-04-05 08:57 PM No
225 LatestAndGreatest Auraxium Soldier 106 22d 11h 38m 2020-03-13 05:58 PM 2020-04-12 03:56 PM No
226 EleXColdXhoT Recruit 100 100d 9h 40m 2020-03-13 04:52 PM Yesterday 10:13 PM No
227 PrometheusVS Auraxium Soldier 52 2d 9h 51m 2020-03-13 04:51 PM 2020-04-11 09:48 PM No
228 TubaRuba Auraxium Soldier 97 59d 20h 37m 2020-03-13 12:01 AM Today 12:48 AM No
229 GrazzHoppaVS Auraxium Soldier 53 2d 12h 15m 2020-03-12 11:48 PM Yesterday 09:18 PM No
230 Dolohova Recruit 108 57d 2h 37m 2020-03-12 10:57 PM 2020-05-25 05:52 PM No
231 Rayman4009 Member 9 0d 0h 30m 2020-03-12 06:23 PM 2020-03-12 06:21 PM No
232 Deviater Recruit 40 3d 18h 15m 2020-03-11 11:59 PM 2020-04-29 11:30 PM No
233 Farrout Recruit 40 3d 0h 7m 2020-03-11 11:59 PM 2020-04-29 12:05 PM No
234 Nevik Recruit 95 41d 10h 16m 2020-03-11 11:59 PM 2020-05-24 01:48 PM No
235 Aharit Auraxium Soldier 100 126d 14h 27m 2020-03-11 11:56 PM 2020-05-27 08:47 PM No
236 SilzzC Advisor 100 107d 22h 49m 2020-03-11 11:54 PM Yesterday 08:58 PM No
237 Newheart Auraxium Soldier 100 104d 10h 53m 2020-03-11 10:07 PM 2020-05-15 07:13 PM No
238 urinemaster Recruit 19 0d 18h 11m 2020-03-11 08:06 PM 2020-05-20 01:28 AM No
239 BigChopstick Recruit 15 0d 8h 51m 2020-03-11 08:06 PM 2020-04-30 06:57 PM No
240 SteveIrwinsBulgingROCKS Auraxium Soldier 73 3d 10h 44m 2020-03-11 08:04 PM 2020-04-14 10:51 PM No
241 JohannSebastianROCK Auraxium Soldier 76 3d 4h 13m 2020-03-11 08:03 PM 2020-04-05 08:13 PM No
242 Arizyll Recruit 21 0d 22h 55m 2020-03-11 07:46 PM 2020-05-19 07:25 PM No
243 NarutoRunner51 Auraxium Soldier 87 10d 4h 8m 2020-03-11 07:46 PM Yesterday 10:53 PM No
244 Maziiik621 Recruit 39 4d 22h 16m 2020-03-11 06:02 PM 2020-05-27 12:17 AM No
245 CASUALLYSHlTPOSTING Member 52 4d 15h 49m 2020-03-11 05:40 PM 2020-03-15 04:06 AM No
246 IC1138 Veteran 120 157d 13h 50m 2020-03-11 01:54 AM 2020-04-03 08:34 PM No
247 eyePotato Veteran 76 14d 8h 33m 2020-03-10 10:44 PM 2020-05-07 03:54 AM No
248 Achaian Staff 61 67d 13h 22m 2020-03-10 09:09 PM Yesterday 08:39 PM No
249 MrStoleYoGirl Veteran 15 0d 11h 37m 2020-03-09 02:25 AM 2020-03-21 02:29 AM No
250 Tackn Veteran 39 95d 18h 15m 2020-03-09 02:20 AM 2020-05-01 06:24 PM No
251 MasterChieeff Veteran 16 0d 21h 59m 2020-03-07 06:58 PM 2020-05-09 06:27 AM No
252 SirJordoVS Member 42 2d 4h 37m 2020-03-07 06:58 PM 2020-04-18 07:53 PM No
253 ABigROCK Auraxium Soldier 32 0d 12h 12m 2020-03-06 08:30 PM 2020-03-28 09:05 PM No
254 HitROCKBottom Auraxium Soldier 60 2d 17h 59m 2020-03-06 08:21 PM 2020-04-08 04:15 PM No
255 azerty987 Member 42 4d 11h 54m 2020-03-05 12:22 AM 2020-05-03 07:49 AM No
256 Ignasio Auraxium Soldier 100 168d 21h 26m 2020-03-04 10:59 PM 2020-05-28 08:01 PM No
257 Andricor Veteran 74 53d 10h 16m 2020-03-04 10:58 PM Yesterday 10:22 PM No
258 Billy380 Veteran 112 83d 4h 26m 2020-03-04 07:23 PM 2020-03-31 04:12 PM No
259 kingchar23 Veteran 55 17d 17h 57m 2020-03-03 10:22 PM 2020-03-03 02:16 AM No
260 LastBender Veteran 92 46d 5h 59m 2020-03-01 12:15 AM 2020-04-14 10:01 PM No
261 Tummy838 Member 32 0d 17h 6m 2020-02-29 09:47 PM Yesterday 11:49 PM No
262 Aeturnae Auraxium Soldier 100 57d 19h 33m 2020-02-29 09:10 PM Yesterday 02:10 PM No
263 Muwrah Auraxium Soldier 100 121d 10h 47m 2020-02-29 08:43 PM 2020-05-04 06:25 PM No
264 bigswifty Veteran 111 63d 18h 37m 2020-02-29 04:56 PM 2020-04-28 09:45 AM No
265 justincrediblygood Veteran 45 75d 7h 29m 2020-02-28 01:18 AM Yesterday 07:27 PM No
266 EtherLG Veteran 79 25d 22h 48m 2020-02-27 12:14 AM 2020-04-13 09:51 PM No
267 BinaryPrime Auraxium Soldier 98 9d 11h 53m 2020-02-27 12:01 AM Today 12:12 AM No
268 DukkeroonieVS Member 58 19d 10h 21m 2020-02-26 11:45 PM Today 06:19 AM No
269 RetartedRock Auraxium Soldier 10 0d 1h 51m 2020-02-26 09:04 PM 2020-03-11 08:59 PM No
270 CoronaROCKvirus Auraxium Soldier 21 0d 10h 15m 2020-02-26 09:04 PM 2020-04-09 12:04 AM No
271 TOADROCK Advisor 45 1d 0h 50m 2020-02-26 09:01 PM 2020-03-27 05:22 PM No
272 ROCKpower001 Auraxium Soldier 32 0d 19h 11m 2020-02-26 09:01 PM 2020-03-24 05:46 PM No
273 slattyismyROCK Auraxium Soldier 41 1d 19h 16m 2020-02-26 09:01 PM 2020-04-06 10:38 PM No
274 CROCKLED Auraxium Soldier 32 0d 20h 50m 2020-02-26 09:01 PM 2020-04-05 05:59 PM No
275 FaRock Auraxium Soldier 29 0d 22h 45m 2020-02-26 09:01 PM 2020-04-04 07:48 PM No
276 VSbot1234 Member 7 0d 2h 8m 2020-02-26 04:22 PM 2020-03-18 03:38 AM No
277 Kayh Veteran 47 118d 23h 2m 2020-02-24 11:22 PM Yesterday 08:12 PM No
278 tehstone Member 77 60d 7h 57m 2020-02-24 08:56 PM 2020-04-12 03:58 PM No
279 ClearSkyDrop Member 36 2d 17h 18m 2020-02-24 08:56 PM 2020-03-19 05:53 PM No
280 JeskaTheFalse Member 20 1d 11h 55m 2020-02-24 07:37 PM 2020-05-09 09:03 PM No
281 Mexolocy Member 23 1d 3h 50m 2020-02-23 10:52 PM 2020-03-23 07:11 AM No
282 Jinkar Veteran 66 19d 4h 34m 2020-02-22 11:21 PM 2020-03-25 04:03 PM No
283 Denzalor Veteran 60 15d 22h 9m 2020-02-22 11:20 PM 2020-03-12 09:58 PM No
284 Murango Member 53 12d 9h 41m 2020-02-22 11:20 PM 2020-05-20 02:47 PM No
285 Art0fdying Veteran 9 34d 3h 28m 2020-02-22 06:35 PM 2020-05-23 12:54 AM No
286 Repeared Member 40 9d 12h 38m 2020-02-22 02:49 AM 2020-05-16 09:32 PM No
287 SithZavvVS Veteran 102 59d 17h 52m 2020-02-22 01:36 AM Yesterday 09:02 PM No
288 VSspiffy Member 93 23d 10h 25m 2020-02-21 06:06 PM Yesterday 08:20 PM No
289 LmaoWasTaken Member 12 0d 4h 47m 2020-02-21 02:03 AM 2020-02-25 11:06 PM No
290 Safsoufa Veteran 37 5d 23h 23m 2020-02-17 11:31 PM 2020-02-19 09:06 PM No
291 4TheSquad Member 28 2d 4h 55m 2020-02-17 06:34 PM 2020-04-18 02:53 AM No
292 Grndvltrvs Veteran 120 62d 0h 7m 2020-02-17 12:42 AM 2020-04-05 05:41 PM No
293 AlanoxDrekan Veteran 88 69d 12h 34m 2020-02-16 11:13 PM 2020-05-16 09:14 PM No
294 Niekin Veteran 100 67d 11h 10m 2020-02-16 06:10 PM 2020-04-04 09:12 PM No
295 Jadeixa Auraxium Soldier 100 45d 16h 41m 2020-02-16 03:36 AM Yesterday 09:11 PM No
296 GatseVS Auraxium Soldier 53 2d 21h 24m 2020-02-16 12:19 AM 2020-05-18 08:00 PM No
297 FoggyHunterX Member 36 3d 5h 34m 2020-02-15 11:32 PM 2020-04-18 08:49 PM No
298 ScaredStar Member 40 3d 15h 0m 2020-02-15 11:32 PM 2020-04-19 07:45 PM No
299 0rangeBasket Member 105 27d 3h 56m 2020-02-14 02:02 AM 2020-03-21 02:29 AM No
300 GreenBC Auraxium Soldier 100 147d 18h 16m 2020-02-13 09:18 PM 2020-05-09 10:00 PM No
301 itstheryhard Member 18 0d 15h 23m 2020-02-12 11:05 PM 2020-02-20 09:07 PM No
302 Saborshy Member 26 1d 15h 47m 2020-02-12 09:02 PM 2020-03-17 08:21 PM No
303 Lokrin Advisor 100 70d 4h 55m 2020-02-12 09:01 PM Yesterday 06:58 PM No
304 MegatronAttack Advisor 100 219d 1h 52m 2020-02-12 09:01 PM Yesterday 08:55 PM No
305 RudyTheNinja3 Veteran 25 1d 15h 59m 2020-02-11 10:07 PM 2020-03-06 01:52 PM No
306 Seraph21 Veteran 52 68d 21h 10m 2020-02-11 09:48 PM 2020-03-28 07:23 PM No
307 ThePoffin Member 30 2d 2h 40m 2020-02-10 06:29 PM 2020-05-07 01:10 PM No
308 Silversig12 Veteran 30 1d 10h 23m 2020-02-08 08:57 PM 2020-02-22 08:33 PM No
309 Ladnsee Veteran 21 0d 22h 49m 2020-02-05 10:18 PM 2020-02-11 11:19 PM No
310 heimaojiang Auraxium Soldier 44 2d 22h 23m 2020-02-05 10:18 PM Yesterday 10:40 PM No
311 SundyManVS Veteran 120 81d 6h 34m 2020-02-05 10:17 PM 2020-03-15 08:50 PM No
312 Sedayknee Member 27 0d 11h 27m 2020-01-20 02:24 AM 2020-05-22 10:06 PM No
313 ToshiroMisuma Member 34 2d 18h 57m 2020-01-09 12:52 AM 2020-01-28 12:37 AM No
314 Duhaceman1 Member 44 3d 3h 51m 2020-01-03 10:21 PM 2020-05-19 06:55 AM No
315 DeezNutzMAn Veteran 38 4d 7h 41m 2019-12-24 03:27 AM 2020-05-07 09:44 AM No
316 SoberPinYAta Veteran 106 56d 16h 6m 2019-12-21 12:22 AM 2020-05-15 01:04 AM No
317 Avogatoss Veteran 20 1d 4h 23m 2019-12-20 01:14 AM 2020-03-14 05:36 AM No
318 WaysideToast Veteran 71 51d 1h 27m 2019-12-18 11:05 PM Yesterday 03:40 PM No
319 Jariah Member 43 6d 0h 17m 2019-12-16 10:28 PM 2020-01-28 01:43 AM No
320 qijingtianhuanvs Veteran 15 0d 7h 52m 2019-12-14 10:54 PM 2019-12-14 10:53 PM No
321 Maelios Veteran 73 28d 3h 3m 2019-12-14 09:42 PM 2020-03-29 10:31 PM No
322 sukabuleite Member 60 6d 17h 58m 2019-12-14 09:14 PM 2020-05-27 10:17 AM No
323 suke0O Veteran 26 0d 12h 45m 2019-12-13 09:52 PM 2020-05-19 10:09 PM No
324 Webbskee Veteran 83 29d 4h 53m 2019-12-10 11:20 PM Yesterday 07:49 PM No
325 Mukashi Veteran 90 28d 13h 39m 2019-12-10 12:43 AM 2019-12-10 12:27 AM No
326 ProphetVSx Veteran 38 2d 10h 16m 2019-12-09 03:14 AM 2020-04-23 01:34 PM No
327 PeregrinClaw Member 21 3d 3h 32m 2019-12-07 09:00 PM 2020-03-25 04:52 PM No
328 FoxNews12 Member 15 0d 13h 14m 2019-12-07 08:57 PM 2020-03-03 01:09 AM No
329 LevelCapTimeFlux Staff 100 91d 3h 29m 2019-12-07 08:57 PM Yesterday 08:59 PM No
330 SychoSting Member 13 1d 5h 6m 2019-12-07 08:10 PM 2020-01-01 10:59 PM No
331 Gamekiller144 Veteran 38 4d 23h 9m 2019-12-06 10:12 PM 2020-05-23 11:34 AM No
332 Specter86 Member 39 7d 13h 59m 2019-11-29 06:51 PM 2020-02-02 02:48 AM No
333 TTyphoon Veteran 35 76d 2h 35m 2019-11-29 04:09 AM 2020-01-15 09:30 PM No
334 Eternal345 Member 32 3d 2h 21m 2019-11-26 11:46 PM 2020-04-30 11:40 PM No
335 Stonecutter Veteran 57 9d 1h 57m 2019-11-23 11:35 PM 2020-05-20 10:48 PM No
336 Electrovex Member 28 4d 9h 38m 2019-11-23 08:28 PM 2019-12-19 07:54 PM No
337 WaysonHarris Recruit 74 24d 14h 39m 2019-11-23 08:28 PM 2020-05-14 09:21 PM No
338 ChronicAcid Veteran 30 1d 17h 38m 2019-11-18 06:59 PM 2019-12-27 02:19 PM No
339 MoogKnightVS Member 17 0d 10h 27m 2019-11-16 11:38 PM 2020-02-17 09:43 PM No
340 TechnoChic Member 54 7d 2h 0m 2019-11-15 09:02 PM 2020-05-29 04:43 PM No
341 TygarnVS Member 35 2d 3h 58m 2019-11-15 09:02 PM 2020-05-02 09:28 AM No
342 monoboru Veteran 100 161d 14h 18m 2019-11-15 09:01 PM Today 07:18 AM Yes
343 nitusVS Auraxium Soldier 65 4d 20h 49m 2019-11-15 02:15 AM 2020-05-29 10:37 PM No
344 Extreke Member 101 70d 7h 57m 2019-11-12 10:25 PM 2019-11-13 09:35 PM No
345 NotSolderVS Member 89 13d 0h 51m 2019-11-12 07:48 PM 2020-05-29 06:53 PM No
346 xart00 Auraxium Soldier 81 7d 7h 30m 2019-11-11 10:23 PM 2020-05-25 05:07 PM No
347 DanGlycerin Veteran 100 97d 1h 30m 2019-11-08 09:09 PM 2019-11-17 06:25 PM No
348 SwampApeVS Veteran 66 6d 18h 49m 2019-11-06 08:56 PM 2020-05-27 03:57 AM No
349 emsou Veteran 17 0d 20h 20m 2019-11-03 09:35 PM 2019-11-13 09:20 PM No
350 Wraithii Veteran 66 15d 16h 38m 2019-10-30 08:55 PM 2020-04-07 12:12 AM No
351 MrBobert627 Member 56 12d 11h 54m 2019-10-27 12:17 AM 2020-05-25 02:18 PM No
352 RussellShanks Member 86 19d 3h 14m 2019-10-27 12:10 AM 2020-05-07 12:00 AM No
353 VanuLight11 Member 53 5d 20h 59m 2019-10-26 09:10 PM Yesterday 05:44 PM No
354 Xaonos Veteran 76 29d 10h 34m 2019-10-26 08:58 PM 2019-10-29 02:09 AM No
355 DarkstarKhazix Veteran 99 37d 22h 29m 2019-10-26 08:40 PM Yesterday 08:40 PM No
356 Dexterdb Veteran 66 8d 21h 23m 2019-10-26 01:39 AM Yesterday 08:11 PM No
357 Relitto Member 45 7d 0h 12m 2019-10-26 12:41 AM 2020-01-16 06:50 PM No
358 LilNovaBombSkkrt Veteran 46 6d 5h 25m 2019-10-25 01:43 AM 2020-05-29 09:49 PM No
359 Reshui Veteran 77 83d 12h 28m 2019-10-19 09:36 PM 2020-04-25 03:17 PM No
360 Alphmongler Auraxium Soldier 100 33d 4h 41m 2019-10-12 11:19 PM 2020-05-27 08:51 PM No
361 RektUmbra Veteran 22 0d 23h 26m 2019-10-11 10:52 PM 2019-11-25 04:44 PM No
362 xXR4p1dUpXx Veteran 120 89d 10h 38m 2019-10-09 11:06 PM 2020-04-08 03:32 PM No
363 BoosterHymen Veteran 49 9d 14h 7m 2019-10-09 08:59 PM 2020-01-13 12:18 AM No
364 3arc Veteran 112 67d 10h 39m 2019-10-07 10:48 PM 2020-05-23 07:41 AM No
365 drooroo Veteran 93 34d 10h 34m 2019-10-05 11:37 PM 2020-02-22 09:25 PM No
366 ASleepySenpaiVS Veteran 79 35d 14h 3m 2019-10-05 10:29 PM 2020-05-27 08:24 AM No
367 VeleskaraWren Veteran 1 0d 0h 42m 2019-10-03 08:30 PM 2019-10-19 09:13 PM No
368 GddamnitColin Member 80 16d 0h 17m 2019-10-03 05:55 PM 2019-10-05 10:21 PM No
369 Ainz52 Veteran 27 2d 14h 14m 2019-10-03 05:54 PM 2020-04-30 02:04 AM No
370 MORRISAAA Member 23 0d 15h 58m 2019-09-18 07:24 PM 2020-05-23 06:12 PM No
371 Equinox8 Member 36 4d 20h 19m 2019-09-06 01:46 AM 2019-12-28 12:21 AM No
372 MagnanimousVS Auraxium Soldier 100 134d 8h 48m 2019-09-04 11:07 PM Yesterday 08:48 PM No
373 MisterTastee Veteran 35 77d 2h 56m 2019-08-26 01:01 AM Yesterday 07:10 PM No
374 VSWarBubble Member 17 0d 13h 3m 2019-08-26 01:01 AM 2020-03-27 11:30 AM No
375 kmtwo Veteran 90 32d 5h 13m 2019-08-17 11:18 PM Yesterday 09:15 PM No
376 PurpleFranz Staff 79 8d 5h 56m 2019-08-11 10:14 PM 2020-05-11 09:00 PM No
377 SpareRetina Veteran 100 196d 15h 48m 2019-08-01 02:18 AM 2020-05-27 02:18 PM No
378 AsianWomanDriver Advisor 8 0d 1h 20m 2019-08-01 01:42 AM 2019-12-21 09:59 PM No
379 Ikora Veteran 61 5d 17h 45m 2019-07-31 10:17 PM 2020-04-17 09:56 PM No
380 Snugglepunk Member 26 2d 11h 51m 2019-07-08 06:24 PM 2020-01-19 08:44 PM No
381 Jekksie Veteran 21 1d 3h 47m 2019-06-14 11:34 PM 2019-07-04 09:40 PM No
382 Disadvantaged Veteran 35 1d 12h 33m 2019-06-06 04:30 PM 2020-05-20 04:32 PM No
383 Justbodies Veteran 100 71d 1h 10m 2019-06-02 03:06 AM 2020-03-07 01:11 AM No
384 BarnacleEd Member 25 1d 17h 9m 2019-05-31 08:55 PM 2020-02-22 09:05 PM No
385 Kulso Veteran 85 44d 20h 35m 2019-05-24 09:41 PM 2020-04-05 01:13 AM No
386 PhatBaker Veteran 56 7d 1h 39m 2019-05-15 11:02 PM 2020-05-20 09:08 PM No
387 CptDeliciousPants Member 25 1d 11h 33m 2019-05-12 05:24 PM 2019-09-17 09:54 AM No
388 allakazaam Veteran 55 13d 2h 43m 2019-05-11 09:14 PM 2020-04-04 10:58 PM No
389 EricJuly Veteran 46 6d 13h 33m 2019-05-10 12:54 AM 2019-10-28 09:09 PM No
390 Jimmacle Veteran 102 59d 16h 58m 2019-05-01 11:22 PM 2019-05-29 05:50 PM No
391 Suicidekats Member 26 2d 19h 16m 2019-04-28 09:12 PM 2019-09-16 06:01 PM No
392 SalenceVS Veteran 100 70d 4h 1m 2019-04-01 09:16 PM Yesterday 08:27 PM No
393 Starlark Auraxium Soldier 120 190d 21h 25m 2019-03-04 11:41 PM 2020-05-27 03:26 AM No
394 DoubleBlunts Veteran 87 16d 6h 12m 2019-02-20 08:45 PM 2020-05-22 04:00 PM No
395 VenesaMoonwall Veteran 25 14d 3h 26m 2019-01-28 07:06 PM Today 02:13 AM No
396 JjumpyK Veteran 61 9d 14h 22m 2019-01-27 07:01 AM Today 06:07 AM No
397 Potaaaaaato Veteran 22 0d 17h 2m 2019-01-23 09:05 PM 2019-12-13 11:52 PM No
398 KILLYKILLS Member 74 13d 0h 30m 2019-01-09 12:52 AM 2019-04-12 01:25 AM No
399 Valhalla4Dayz Veteran 48 7d 12h 32m 2018-12-28 06:22 PM 2020-03-20 11:33 PM No
400 Gameboy3VS Member 34 0d 23h 52m 2018-12-26 11:14 PM 2020-03-31 12:37 PM No
401 ArmoredSquid Member 35 6d 20h 40m 2018-12-14 04:54 PM 2020-03-16 11:58 AM No
402 vogst Veteran 84 33d 23h 51m 2018-12-04 11:00 PM 2020-03-31 12:24 PM No
403 alexmszan Member 22 1d 10h 2m 2018-12-02 10:41 PM 2020-01-04 10:26 PM No
404 GiovannaZ Veteran 26 3d 0h 10m 2018-11-30 07:24 PM 2020-01-30 07:02 AM No
405 neilb4wabbajack Member 55 8d 10h 13m 2018-11-24 09:40 PM 2019-10-12 07:02 PM No
406 2BitSlow Veteran 51 12d 4h 34m 2018-11-23 09:16 PM 2020-03-12 08:09 PM No
407 DevistatorVIII Auraxium Soldier 100 145d 10h 13m 2018-11-21 09:02 PM 2020-05-15 08:44 PM No
408 youded1 Member 38 3d 14h 57m 2018-11-18 05:21 PM 2020-04-06 05:50 PM No
409 NICEBUTT69 Member 42 6d 1h 6m 2018-10-31 10:21 PM 2020-03-15 01:10 AM No
410 Xanderk1203 Member 80 26d 8h 1m 2018-10-31 02:47 AM 2019-12-23 11:07 PM No
411 treeeeeeeeeeeeeeeeeeeeeeeeeeeeee Auraxium Soldier 72 6d 11h 52m 2018-10-05 05:32 PM 2020-05-27 09:11 PM No
412 DeadAngel0416 Member 33 3d 3h 2m 2018-09-29 03:18 PM 2020-05-24 02:09 PM No
413 Fire2018 Veteran 36 3d 7h 42m 2018-09-28 07:40 PM 2020-03-11 06:27 PM No
414 AwesomedeepVS Auraxium Soldier 100 143d 21h 0m 2018-09-22 11:37 PM Yesterday 08:14 PM No
415 PORTropa Member 31 3d 22h 46m 2018-08-25 09:02 PM 2019-11-02 07:30 PM No
416 xSavoryx Veteran 76 22d 4h 56m 2018-08-23 08:48 PM 2020-05-08 08:29 AM No
417 ryznss Veteran 35 9d 22h 30m 2018-08-11 08:26 PM 2020-04-24 11:55 AM No
418 Codey3A Veteran 66 9d 15h 39m 2018-07-25 09:06 PM 2020-04-14 07:35 PM No
419 Zionist Veteran 85 48d 17h 38m 2018-07-23 08:38 PM 2018-09-23 04:34 PM No
420 AGuatemalanBush Veteran 44 5d 9h 4m 2018-07-07 11:01 PM 2020-05-01 11:04 PM No
421 Napalmic Veteran 50 17d 8h 3m 2018-06-24 09:43 PM 2020-03-27 10:28 PM No
422 Epkon Veteran 89 56d 7h 9m 2018-06-24 06:47 PM 2020-03-27 10:27 PM No
423 TheAlphaWeenie Veteran 40 5d 9h 6m 2018-06-20 11:18 PM 2020-01-12 08:31 AM No
424 57bel2 Member 36 3d 10h 15m 2018-06-16 11:07 PM 2020-05-21 11:53 AM No
425 Daseti Veteran 49 6d 3h 42m 2018-06-13 05:02 PM 2020-02-24 12:54 AM No
426 okkid123 Veteran 65 10d 9h 12m 2018-05-28 01:34 AM 2020-05-22 07:51 PM No
427 YouYourself Veteran 67 15d 14h 55m 2018-05-25 07:42 PM 2020-05-09 09:17 PM No
428 memyselfani Veteran 118 45d 1h 7m 2018-05-12 11:08 PM 2020-05-22 10:39 PM No
429 Gameboy9494 Veteran 16 1d 6h 27m 2018-05-10 06:28 PM 2019-12-12 03:11 PM No
430 Malbolshia666 Veteran 92 25d 7h 53m 2018-04-28 09:36 PM 2019-09-01 07:16 PM No
431 Chingesereum Member 25 0d 23h 59m 2018-04-26 02:19 AM 2020-05-22 01:39 AM No
432 DaeronAlvadi Member 38 5d 16h 38m 2018-03-30 09:59 PM 2020-02-27 08:16 PM No
433 BOATsmain Veteran 21 1d 8h 56m 2018-03-27 10:01 PM 2019-10-28 11:20 PM No
434 WindDancerVS Advisor 52 31d 1h 40m 2018-03-20 09:42 PM Yesterday 10:14 PM No
435 aWashmachine Veteran 24 37d 10h 55m 2018-03-17 11:23 PM 2020-03-28 04:05 AM No
436 GetDunkedOn420MLGHackz Auraxium Soldier 55 1d 23h 2m 2018-02-27 11:30 PM 2020-04-11 10:56 PM No
437 JarJar2 Veteran 52 84d 12h 22m 2018-02-27 10:20 PM 2020-03-11 09:34 PM No
438 Qang Member 77 31d 13h 29m 2018-02-24 08:59 PM 2020-04-14 10:16 PM No
439 Sprightly Veteran 62 18d 9h 4m 2018-02-03 08:59 PM 2020-04-13 04:54 AM No
440 hashtagprincess Veteran 104 46d 17h 18m 2018-01-25 09:45 PM 2019-11-09 09:01 PM No
441 ForcedSnuggles Member 42 4d 1h 29m 2018-01-18 10:20 PM 2020-05-26 06:31 PM No
442 bigdub Veteran 87 33d 13h 36m 2018-01-13 11:32 PM 2020-05-23 08:56 PM No
443 Leggerless Veteran 67 26d 14h 16m 2018-01-13 04:16 PM Yesterday 08:24 PM No
444 Peru512 Veteran 54 7d 9h 19m 2018-01-06 09:01 PM 2020-04-01 03:17 PM No
445 Matharuk Member 72 10d 21h 2m 2017-12-31 04:35 AM 2020-05-23 02:51 PM No
446 Ortas Veteran 25 110d 9h 18m 2017-11-18 09:41 PM 2020-04-06 07:19 PM No
447 Tulli Veteran 74 89d 23h 43m 2017-10-29 08:12 PM Yesterday 11:06 PM No
448 NotAwesomedeep Auraxium Soldier 82 12d 9h 15m 2017-10-21 11:11 PM 2018-06-20 11:23 PM No
449 ImmmaMoose Veteran 35 5d 12h 53m 2017-10-09 12:20 AM 2018-10-10 09:40 PM No
450 Byzaine Veteran 85 24d 6h 48m 2017-09-14 09:50 PM 2020-04-13 02:03 AM No
451 ThatDudeIThink Staff 120 202d 17h 7m 2017-09-13 11:25 PM 2020-04-06 02:00 AM No
452 TheDankPotatoSS Veteran 93 29d 3h 1m 2017-09-04 12:33 AM 2019-11-22 09:57 PM No
453 BodyMovin Veteran 79 12d 16h 23m 2017-08-31 05:24 PM 2020-03-25 09:08 PM No
454 AssFaceKilllah Veteran 55 8d 20h 40m 2017-08-21 08:47 PM 2018-09-30 12:11 AM No
455 babyleg Veteran 41 4d 6h 10m 2017-08-20 04:02 AM 2017-12-13 10:15 PM No
456 VanuRidkin Member 12 0d 8h 10m 2017-08-14 02:43 AM 2019-11-26 01:14 AM No
457 Rauc Veteran 100 103d 13h 18m 2017-06-10 12:10 AM 2020-05-28 01:31 AM No
458 MiriaVincent Veteran 109 59d 22h 14m 2017-05-28 11:15 PM Today 01:23 AM No
459 Notaboat Veteran 57 5d 22h 53m 2017-05-27 09:17 AM 2019-03-10 08:45 AM No
460 AnonImplied Veteran 82 192d 19h 52m 2017-05-16 11:46 PM Today 01:03 AM No
461 Alvehyanna Veteran 50 61d 23h 30m 2017-05-16 10:59 PM 2018-09-27 09:59 PM No
462 MLGDankWizard420 Veteran 95 35d 6h 2m 2017-05-16 10:55 PM 2018-08-17 10:27 AM No
463 UdderMojo Veteran 45 195d 1h 43m 2017-05-16 10:52 PM 2020-03-21 01:22 AM No
464 xRubyRose Veteran 34 2d 22h 42m 2017-05-14 05:38 PM 2019-06-07 07:51 PM No
465 Jelyfish Veteran 48 2d 6h 43m 2017-05-13 02:13 AM 2018-10-27 07:27 AM No
466 N1ghtFeather Veteran 77 34d 15h 48m 2017-05-09 10:38 PM 2020-05-27 01:19 AM No
467 MLGSavantpwn Veteran 77 25d 14h 41m 2017-04-15 11:48 PM 2020-04-10 11:28 PM No
468 ZZulton Veteran 100 59d 15h 42m 2017-04-15 10:44 PM 2019-03-17 07:39 PM No
469 Greyso Veteran 69 18d 19h 26m 2017-04-08 11:29 PM 2019-07-23 03:38 PM No
470 CrunchMunchSlurp Member 38 4d 9h 20m 2017-03-19 04:08 AM 2019-03-14 08:34 PM No
471 fourgsx6 Member 22 1d 3h 5m 2017-03-16 03:19 AM 2020-02-06 01:29 PM No
472 Canadianuxe Veteran 36 7d 14h 21m 2017-03-08 09:56 PM 2017-03-13 06:08 PM No
473 ManiTrejo Veteran 48 14d 6h 0m 2017-03-05 09:54 PM 2020-04-01 08:38 PM No
474 SerpentX Auraxium Soldier 100 73d 10h 55m 2017-02-26 12:09 AM 2017-02-26 12:06 AM No
475 Terreth Veteran 30 50d 8h 49m 2017-02-18 10:56 PM 2020-05-29 05:47 PM No
476 314napplemango Veteran 38 3d 4h 0m 2017-02-02 11:33 PM 2018-05-12 03:46 PM No
477 Chanceler Veteran 81 28d 22h 46m 2017-01-21 10:49 PM 2020-05-05 08:06 PM No
478 TheSuperExploderdude Veteran 80 20d 17h 21m 2017-01-10 03:17 PM 2020-05-28 03:31 PM No
479 Spraven Veteran 77 27d 13h 30m 2017-01-07 07:35 PM 2019-12-01 01:10 PM No
480 icemanchillin Member 84 11d 18h 49m 2017-01-04 10:08 PM 2020-05-03 06:21 PM No
481 Wolfengang Member 24 1d 18h 30m 2016-12-31 04:42 PM 2019-11-09 01:06 AM No
482 Kaisson Veteran 84 32d 21h 50m 2016-12-17 10:39 PM 2019-06-04 05:18 AM No
483 tryone2013 Veteran 22 1d 0h 43m 2016-12-01 10:43 PM 2019-09-09 06:06 PM No
484 hainan6k Veteran 75 13d 23h 21m 2016-11-20 11:08 PM 2020-04-30 12:30 PM No
485 Stonemaster Veteran 119 86d 21h 29m 2016-11-19 09:10 PM 2019-05-13 11:01 AM No
486 Lenus Member 102 57d 3h 2m 2016-11-02 11:50 PM Today 06:13 AM No
487 CaptSparxVS Member 35 2d 2h 45m 2016-10-29 11:46 PM 2019-11-29 09:37 PM No
488 MaxzWz Member 38 1d 15h 33m 2016-09-14 09:04 PM 2020-01-31 02:23 AM No
489 VSMash Member 40 3d 22h 50m 2016-08-27 09:48 PM 2019-10-19 07:29 PM No
490 WhatAm1 Member 56 12d 8h 48m 2016-07-29 07:30 PM 2020-04-19 12:27 AM No
491 TomFrank Veteran 57 15d 23h 42m 2016-07-29 01:28 AM 2020-03-18 02:00 AM No
492 Ridog Veteran 95 42d 19h 1m 2016-07-26 12:52 AM 2019-11-01 02:49 PM No
493 ScarletSkinTone Veteran 71 23d 1h 14m 2016-07-23 11:05 PM 2018-12-31 10:42 PM No
494 RaisuCorran Veteran 73 17d 5h 21m 2016-07-23 08:24 PM Yesterday 10:57 PM No
495 akell Member 72 21d 1h 37m 2016-07-23 04:04 AM 2020-05-13 01:53 PM No
496 RusticStinger Veteran 46 8d 2h 20m 2016-07-22 01:18 AM 2020-02-19 10:19 PM No
497 PapaSmurf3 Veteran 92 53d 21h 30m 2016-06-18 09:08 PM 2020-04-04 09:47 PM No
498 Commanders12345 Veteran 74 18d 6h 10m 2016-06-04 09:03 AM 2020-05-06 01:35 AM No
499 Deacon Veteran 75 22d 19h 17m 2016-05-22 12:32 AM 2019-08-07 10:15 PM No
500 XathonnX Veteran 92 38d 17h 14m 2016-05-22 12:31 AM 2020-04-13 08:04 PM No
501 Emaeria Member 50 5d 18h 19m 2016-05-20 09:43 PM 2020-05-28 04:15 PM No
502 ThePurpleSmoke Auraxium Soldier 33 1d 11h 12m 2016-05-18 09:08 PM 2018-01-18 10:25 PM No
503 CoolBreeze563 Member 42 7d 8h 12m 2016-05-14 04:26 AM 2020-05-26 10:00 PM No
504 Khirareq Veteran 68 35d 19h 40m 2016-05-13 06:41 PM 2019-08-26 11:30 AM No
505 TurnAside Member 26 1d 12h 41m 2016-05-09 10:45 PM 2020-01-09 06:29 PM No
506 Emperor65699 Member 24 2d 5h 14m 2016-05-08 11:20 PM 2020-04-10 04:45 PM No
507 FunkFest Veteran 84 31d 23h 5m 2016-05-08 12:49 AM Yesterday 11:25 PM No
508 AWood Veteran 65 25d 5h 57m 2016-05-07 10:20 PM 2019-11-23 08:12 PM No
509 Javapenguin Member 54 10d 10h 54m 2016-05-01 02:54 AM 2020-04-11 04:37 PM No
510 4565546455735 Member 30 2d 20h 54m 2016-05-01 01:46 AM 2019-09-27 09:55 PM No
511 BioHazardBN Veteran 69 24d 3h 16m 2016-04-29 01:25 PM 2017-10-30 02:43 PM No
512 Budweizer Veteran 67 24d 12h 48m 2016-04-29 01:08 AM 2016-05-14 04:24 PM No
513 AuraBorealis Veteran 54 9d 6h 53m 2016-04-28 11:16 PM 2020-03-06 10:35 PM No
514 IrisTanaki Veteran 79 25d 20h 54m 2016-04-28 12:27 AM 2020-04-27 01:08 AM No
515 siberialaw Veteran 88 34d 20h 40m 2016-04-02 09:22 PM 2020-04-03 01:23 PM No
516 Voynich1982 Member 29 2d 4h 47m 2016-03-30 08:54 PM 2020-02-11 02:07 PM No
517 DraconiusDarkfire Member 60 23d 23h 18m 2016-03-14 08:20 PM Yesterday 03:55 PM No
518 SpandexWatcher Member 62 4d 16h 49m 2016-03-02 09:48 PM 2020-02-15 10:23 PM No
519 Oldguyballz Veteran 78 47d 1h 27m 2016-02-26 12:39 AM 2019-07-26 11:32 PM No
520 OneLessBot Member 97 41d 20h 40m 2016-02-03 04:42 PM 2020-05-11 09:25 PM No
521 LottoTicket Veteran 29 2d 16h 1m 2016-02-02 10:28 PM Yesterday 06:06 PM No
522 DirtyMouth Veteran 72 18d 7h 48m 2016-02-01 06:07 PM 2019-10-03 01:28 PM No
523 RTIVS Veteran 78 25d 1h 30m 2016-01-22 08:39 PM 2019-02-01 06:40 PM No
524 Abelson2 Member 72 24d 1h 34m 2016-01-08 10:25 PM 2020-03-17 08:40 PM No
525 TheGunnSmith Veteran 105 50d 15h 56m 2016-01-05 09:32 PM 2019-09-06 12:49 AM No
526 IronRain Member 60 20d 20h 33m 2016-01-01 05:05 PM 2020-02-16 02:41 AM No
527 Favoninus Veteran 48 18d 12h 56m 2015-12-26 08:29 AM 2017-10-31 03:15 PM No
528 koalitaaaa Member 44 8d 1h 27m 2015-12-22 12:04 AM 2019-09-18 06:31 PM No
529 TeddyTidy Veteran 59 13d 14h 39m 2015-12-14 02:44 PM 2020-04-18 07:17 AM No
530 xxUPGREYEDDxx Member 75 15d 3h 29m 2015-12-12 09:38 PM 2020-02-09 11:31 PM No
531 FuzzyWah Member 46 5d 3h 55m 2015-12-09 08:34 PM 2020-05-22 09:15 PM No
532 DaReaper Veteran 59 17d 17h 56m 2015-12-07 08:26 PM 2015-12-09 03:13 PM No
533 Konflict38 Veteran 117 38d 15h 59m 2015-12-05 10:43 PM 2020-05-12 08:57 PM No
534 HailCthulhu Emeritus 30 2d 19h 29m 2015-11-29 11:42 PM 2020-02-28 10:01 PM No
535 ChasmofFate Veteran 92 30d 23h 16m 2015-11-26 02:15 AM 2020-05-09 01:22 PM No
536 ToxicMushroom Member 64 16d 13h 39m 2015-11-09 12:08 AM 2020-05-19 07:14 PM No
537 RaucsFriend Veteran 102 83d 19h 59m 2015-11-08 02:47 PM 2017-11-14 04:13 AM No
538 Acenn Veteran 63 24d 23h 23m 2015-10-31 11:10 PM 2019-11-17 07:52 PM No
539 VRevolutionary Veteran 50 73d 3h 25m 2015-10-28 10:40 PM 2018-12-15 09:10 PM No
540 aPizzaStainedSlob Veteran 31 5d 0h 34m 2015-10-10 09:54 PM 2018-01-10 02:59 AM No
541 metaphosphate Member 65 11d 1h 58m 2015-10-07 10:01 PM 2019-04-26 08:39 AM No
542 Alxor Veteran 98 34d 2h 1m 2015-10-01 09:13 PM 2020-05-26 02:39 AM No
543 Klackers Veteran 2 44d 21h 1m 2015-09-30 08:45 PM 2020-02-21 07:41 PM No
544 connerymarksman Member 45 4d 1h 50m 2015-09-26 07:16 PM 2020-04-01 07:42 PM No
545 Tetradotoxin Veteran 62 18d 14h 31m 2015-09-19 10:46 PM 2019-04-02 01:50 AM No
546 crazyaznub Veteran 94 44d 21h 21m 2015-09-18 08:49 PM 2020-03-22 04:47 PM No
547 Arrhythmix Staff 56 28d 14h 40m 2015-09-16 08:29 PM 2020-05-08 09:17 PM No
548 Sys7em Auraxium Soldier 81 137d 4h 30m 2015-09-06 11:49 PM Today 02:29 AM No
549 ZennyRPG2 Veteran 55 20d 4h 15m 2015-08-31 02:29 PM 2015-09-01 09:03 PM No
550 RubYouWrongTime Veteran 57 6d 21h 57m 2015-08-29 09:23 PM Today 02:16 AM No
551 JohannTheViking Veteran 51 6d 8h 26m 2015-08-17 06:08 PM 2018-01-23 12:02 PM No
552 Necronom4 Veteran 76 30d 22h 24m 2015-08-13 02:29 AM 2020-05-01 06:03 PM No
553 Fiktitious Veteran 100 52d 16h 18m 2015-08-02 12:45 AM 2017-12-21 11:30 PM No
554 Cali930 Veteran 99 29d 11h 13m 2015-08-02 12:40 AM 2016-12-27 05:03 PM No
555 Templer Veteran 70 20d 21h 2m 2015-07-23 05:30 PM 2020-03-18 12:39 AM No
556 AltiarSaint Veteran 41 7d 18h 19m 2015-07-03 08:50 PM 2020-02-14 05:28 PM No
557 Wintergloom Veteran 31 3d 20h 13m 2015-06-23 11:50 PM 2019-06-29 10:23 PM No
558 Langarang Veteran 44 7d 13h 21m 2015-06-23 11:46 PM 2015-10-01 07:52 AM No
559 Hamburg3rs Member 73 14d 18h 24m 2015-06-22 05:12 PM 2019-06-01 05:23 PM No
560 AllenGinsberg Veteran 115 103d 11h 33m 2015-06-20 11:02 PM 2020-05-09 07:54 PM No
561 DrAnesthetic Veteran 98 36d 18h 53m 2015-06-13 10:42 PM 2019-11-09 09:23 PM No
562 UndeadWizard Veteran 60 11d 12h 45m 2015-06-08 12:52 PM Yesterday 09:52 AM No
563 SenkaVS Veteran 54 5d 4h 57m 2015-06-06 09:52 PM 2015-11-13 08:30 PM No
564 S3v3ntys3v3n Member 76 16d 17h 8m 2015-05-25 07:51 PM 2019-04-27 10:06 AM No
565 iiDustyii Member 60 15d 6h 32m 2015-05-23 04:36 PM 2019-05-22 08:24 PM No
566 SKHerobrin Member 55 12d 10h 13m 2015-05-17 12:12 AM 2020-04-14 07:25 PM No
567 BatteringRam10 Veteran 43 11d 5h 19m 2015-05-07 05:03 AM 2020-04-02 11:18 PM No
568 DeadlyPurr Member 54 19d 23h 24m 2015-04-26 02:02 PM 2020-04-05 03:08 PM No
569 DesertPNK Veteran 49 11d 21h 26m 2015-04-08 11:11 PM 2020-05-11 01:59 PM No
570 MightOfTheTiger Member 88 34d 4h 57m 2015-04-08 10:56 PM 2020-05-27 12:36 AM No
571 Bizmarck Veteran 47 7d 13h 20m 2015-04-05 12:18 AM 2018-11-17 09:11 PM No
572 SaphireTophu Veteran 51 10d 10h 49m 2015-04-04 09:57 PM 2020-03-17 08:08 PM No
573 Scradss Member 67 19d 9h 57m 2015-04-03 01:56 AM 2020-05-24 12:24 PM No
574 Bonepile Veteran 80 30d 2h 21m 2015-04-01 11:42 PM 2018-11-25 07:17 AM No
575 Tahrek Veteran 38 13d 9h 21m 2015-03-25 02:10 AM 2019-03-11 02:58 AM No
576 Dozn Member 58 12d 7h 52m 2015-03-07 05:12 AM 2019-11-27 12:51 AM No
577 CucumberJones Veteran 56 114d 2h 10m 2015-03-06 10:48 PM 2020-05-28 08:43 PM No
578 0rcinusShrike Veteran 37 6d 17h 1m 2015-03-06 10:48 PM 2016-01-14 08:41 PM No
579 EnterCharacterNameNow Member 51 11d 20h 20m 2015-03-06 10:48 PM 2020-05-20 08:50 PM No
580 captinepic1 Member 73 11d 22h 45m 2015-03-06 07:37 PM Yesterday 09:09 PM No
581 3LEMONE Veteran 97 51d 17h 35m 2015-03-04 11:10 PM 2020-02-18 03:36 PM No
582 Luvbane Member 50 9d 9h 41m 2015-03-01 02:39 PM 2020-03-28 02:33 PM No
583 CanadianPatriot1 Veteran 54 8d 10h 44m 2015-02-16 07:24 PM 2016-07-27 10:31 PM No
584 Niblik Member 47 18d 11h 5m 2015-02-10 10:13 PM 2019-12-02 07:40 PM No
585 LtScarlet Veteran 69 42d 0h 50m 2015-02-08 05:45 PM 2020-04-04 05:07 PM No
586 Hereroe Member 45 10d 4h 59m 2015-02-08 04:54 PM 2020-03-17 03:13 PM No
587 Rigormortis14 Member 83 44d 19h 2m 2015-02-07 08:59 PM Yesterday 10:59 PM No
588 NoJusticeVS Veteran 101 24d 23h 14m 2015-01-17 11:44 PM 2019-06-13 02:10 AM No
589 slarpy Veteran 33 102d 12h 39m 2015-01-10 04:17 AM 2020-04-06 06:10 PM No
590 Choaf Member 48 4d 9h 47m 2015-01-03 09:06 AM 2020-04-10 11:56 PM No
591 Arca9 Veteran 82 12d 15h 1m 2015-01-03 09:06 AM 2016-01-04 05:36 PM No
592 SIRUKUTA Command 51 177d 10h 4m 2014-12-29 06:25 PM Yesterday 10:23 PM No
593 iPlayforTheNC Member 53 5d 20h 11m 2014-12-14 08:20 AM 2019-07-31 03:12 PM No
594 SoftBoom Veteran 103 73d 5h 17m 2014-12-02 11:04 PM 2020-03-13 09:50 PM No
595 LukasCanoe Member 81 45d 14h 50m 2014-11-28 11:35 PM 2019-03-23 04:11 PM No
596 Dragonself Member 42 8d 3h 1m 2014-11-24 09:06 AM 2020-05-19 09:23 AM No
597 kronnek Member 81 28d 21h 15m 2014-11-11 08:45 PM 2020-03-14 01:23 AM No
598 TupacShakur420 Veteran 78 38d 8h 43m 2014-10-20 04:18 AM 2018-02-20 09:51 PM No
599 Atheosim Veteran 92 17d 8h 22m 2014-10-11 08:18 PM 2017-11-18 05:43 PM No
600 Philisophic Veteran 85 31d 11h 40m 2014-10-11 11:26 AM 2020-03-26 12:43 AM No
601 Gr33nG0blin101 Veteran 81 23d 11h 9m 2014-10-06 03:05 PM 2020-03-11 10:38 PM No
602 Tundra1 Member 70 29d 1h 4m 2014-09-23 10:29 PM 2019-12-23 04:39 PM No
603 GreyyMater Veteran 76 24d 4h 31m 2014-09-22 02:06 AM 2016-05-08 03:12 PM No
604 Physika Member 66 22d 8h 27m 2014-08-27 04:56 AM 2020-03-09 09:14 PM No
605 Catfiish Member 78 19d 11h 18m 2014-07-28 06:37 PM 2020-04-06 09:20 PM No
606 Mulrosa Veteran 32 2d 1h 20m 2014-07-24 09:44 PM 2016-05-18 03:08 PM No
607 Impugnity Veteran 108 75d 21h 7m 2014-07-03 08:53 PM 2020-05-27 05:20 PM No
608 Lightness Veteran 68 38d 5h 17m 2014-06-07 08:59 PM 2017-05-25 01:06 AM No
609 vadimsho1 Member 75 23d 15h 6m 2014-05-18 06:42 PM 2019-11-24 01:08 AM No
610 Dredastttarm Member 45 9d 2h 59m 2014-05-14 12:47 AM 2020-05-01 09:53 PM No
611 Sukitsu Member 89 25d 17h 37m 2014-05-13 03:43 AM 2020-04-18 04:04 PM No
612 Justicarus Veteran 57 17d 19h 25m 2014-05-08 12:04 AM 2017-09-20 09:12 PM No
613 MyOwnSling Veteran 52 41d 10h 2m 2014-03-21 04:47 PM Yesterday 08:53 PM No
614 pslpgw Veteran 120 124d 6h 25m 2014-03-12 08:48 PM Today 02:40 AM No
615 Tyundris Veteran 67 14d 22h 54m 2014-03-11 08:39 PM 2016-05-02 10:06 PM No
616 bcashadow Member 34 6d 9h 25m 2014-03-10 12:48 AM 2020-04-28 05:31 PM No
617 Pieiscoolerthanu Member 54 15d 7h 26m 2014-03-02 06:29 PM 2019-06-17 09:03 PM No
618 Zatz Member 42 16d 13h 8m 2014-03-02 05:22 PM 2020-03-19 03:57 PM No
619 Alitech Veteran 103 60d 8h 21m 2014-02-28 10:38 PM 2020-05-24 12:38 PM No
620 SuperColliders Veteran 69 21d 13h 31m 2014-02-22 01:02 AM 2016-05-16 01:54 PM No
621 LordDevin Member 70 26d 20h 23m 2014-02-18 06:24 PM Yesterday 09:19 PM No
622 Phatness1 Veteran 99 36d 6h 52m 2014-02-12 06:22 PM 2018-01-30 08:07 PM No
623 TenreiX Command 110 50d 14h 18m 2014-02-08 01:49 AM 2019-11-29 12:22 PM No
624 leviathan990 Veteran 85 31d 9h 58m 2014-02-06 02:08 PM 2020-05-04 01:36 PM No
625 Talek Veteran 85 27d 1h 23m 2014-02-06 02:58 AM 2020-05-08 09:37 PM No
626 Kafell Veteran 92 25d 20h 22m 2014-02-04 03:48 PM 2017-08-30 06:53 PM No
627 Sekibetsu Advisor 100 90d 3h 44m 2014-01-18 02:18 AM Yesterday 08:51 PM No
628 G315T Veteran 103 86d 14h 14m 2014-01-12 02:53 PM 2016-11-16 08:41 PM No
629 GeeSherman Member 77 19d 22h 21m 2014-01-04 04:26 AM 2020-05-29 12:38 PM No
630 CanadianHick Staff 100 121d 10h 42m 2013-12-29 05:07 PM 2020-05-23 08:46 PM No
631 brennensbomb Member 35 7d 8h 41m 2013-12-27 03:47 PM 2019-09-25 03:48 PM No
632 StrykerMal Veteran 58 23d 20h 34m 2013-12-17 11:55 AM 2020-04-26 07:58 PM No
633 WakaWazzi Member 54 23d 2h 1m 2013-12-13 10:37 PM 2020-05-01 03:16 PM No
634 TheToggle97 Member 41 12d 4h 58m 2013-12-10 12:17 AM 2020-02-16 04:47 AM No
635 Angelicend Veteran 100 65d 17h 18m 2013-12-08 10:21 AM 2019-04-28 10:06 AM No
636 Gary45 Veteran 60 9d 21h 12m 2013-11-27 01:32 PM 2019-01-22 12:33 PM No
637 ThrowTheCheeze Veteran 90 69d 21h 57m 2013-11-26 04:00 PM 2020-05-25 10:55 PM No
638 SlapSticky Veteran 93 58d 1h 33m 2013-11-25 11:03 PM Today 01:56 AM No
639 1337Gamer Auraxium Soldier 111 113d 16h 49m 2013-11-24 07:45 PM 2020-05-13 08:01 PM No
640 DatLewt Member 46 12d 18h 34m 2013-11-24 04:34 AM 2019-08-24 09:16 PM No
641 Pureintention5 Veteran 62 12d 16h 30m 2013-11-23 02:03 PM Yesterday 09:07 PM No
642 NiteWraith Veteran 63 22d 15h 13m 2013-11-22 10:35 PM 2020-05-11 06:28 PM No
643 MoonKira Veteran 96 51d 21h 5m 2013-11-20 08:15 PM 2020-05-03 12:48 AM No
644 Constam Member 98 29d 4h 17m 2013-11-07 10:46 PM 2019-05-06 05:23 PM No
645 CrypticPhantomX Auraxium Soldier 104 84d 17h 40m 2013-11-07 10:46 PM 2016-11-20 08:05 PM No
646 InfernusXYZ Advisor 84 87d 23h 49m 2013-10-27 08:12 PM 2020-04-18 03:14 AM No
647 rattchett Command 115 97d 7h 33m 2013-10-26 12:31 AM 2020-04-30 11:47 PM No
648 xEvilbob Veteran 72 35d 17h 37m 2013-10-23 06:52 PM 2015-12-24 06:17 PM No
649 GhastlyVS Veteran 68 14d 20h 16m 2013-10-19 04:52 PM 2016-12-18 07:06 PM No
650 5LPSY Veteran 84 50d 12h 2m 2013-10-07 03:39 AM 2020-05-17 12:29 AM No
651 Andramada Veteran 56 17d 20h 50m 2013-09-30 10:58 PM 2015-10-15 04:16 PM No
652 CopperPlatypus Veteran 83 30d 23h 51m 2013-09-27 10:47 PM 2020-04-18 08:51 PM No
653 TotesMcGoates Veteran 103 70d 22h 27m 2013-09-24 08:07 PM 2018-06-28 01:07 AM No
654 SammyOlivaw Member 70 25d 1h 39m 2013-09-16 10:16 PM 2020-04-26 01:07 PM No
655 Novantium Veteran 89 43d 3h 56m 2013-09-13 04:29 PM 2018-01-13 08:29 PM No
656 DevilDogBKAlpha Veteran 77 37d 4h 16m 2013-09-10 10:06 PM 2020-05-05 10:00 PM No
657 Tupapcu Veteran 60 32d 8h 14m 2013-09-08 12:51 AM 2020-05-29 02:28 AM No
658 ViCiOuSVeXeN Veteran 83 18d 17h 51m 2013-09-06 06:46 PM 2017-03-28 11:57 AM No
659 Abcinthe Veteran 107 65d 22h 26m 2013-09-04 05:24 AM 2018-06-14 11:10 PM No
660 klu Veteran 103 57d 10h 48m 2013-09-02 08:10 PM 2017-07-10 07:00 PM No
661 HairCrysys Veteran 66 26d 5h 44m 2013-09-02 04:19 PM 2020-04-12 10:58 AM No
662 DogthemanDog Veteran 112 98d 8h 36m 2013-08-31 10:09 PM 2020-05-26 05:41 AM No
663 SolePanda Veteran 98 40d 0h 14m 2013-08-29 09:04 PM 2019-08-24 10:46 PM No
664 wordtrue Member 69 39d 13h 34m 2013-08-27 09:19 PM 2020-04-18 01:50 PM No
665 ThatOneNinja Staff 81 31d 2h 25m 2013-08-21 09:00 PM 2018-10-26 08:16 PM No
666 Stryyfe Veteran 71 22d 6h 50m 2013-08-10 03:47 PM 2020-04-10 10:49 PM No
667 tomer234235 Member 65 17d 5h 4m 2013-08-10 04:35 AM 2020-04-11 02:17 PM No
668 Calcx Veteran 69 21d 8h 42m 2013-08-09 11:54 PM 2018-04-15 07:43 AM No
669 Bootystrap Member 45 11d 10h 4m 2013-08-09 08:24 PM 2020-05-14 09:07 PM No
670 WerenOfOld Member 38 13d 15h 40m 2013-08-06 08:29 PM Yesterday 10:27 AM No
671 VShephard Command 101 103d 11h 38m 2013-08-04 08:21 PM 2020-04-27 05:11 PM No
672 MFGamesta Veteran 102 85d 17h 56m 2013-08-03 01:01 AM 2020-05-03 11:42 PM No
673 Encrypticmethodz Veteran 99 52d 2h 17m 2013-08-02 06:00 AM 2020-05-22 04:00 PM No
674 Longdart Veteran 71 19d 1h 53m 2013-07-27 06:57 AM 2019-12-10 11:33 PM No
675 Viper007 Veteran 100 66d 0h 19m 2013-07-25 08:35 PM 2020-05-25 02:02 PM No
676 MrGhosty Veteran 86 40d 16h 55m 2013-07-23 09:12 PM 2020-05-29 10:13 PM No
677 NowUSeeMeAgain Member 36 7d 20h 2m 2013-07-18 02:46 PM 2019-10-13 10:45 PM No
678 Totenreich Veteran 66 39d 3h 50m 2013-07-12 10:08 AM 2020-05-29 10:04 PM No
679 Sgyrrin Staff 83 77d 4h 10m 2013-07-03 05:28 AM Yesterday 11:50 PM No
680 ThePropain65 Veteran 74 30d 12h 51m 2013-07-02 10:21 PM 2020-03-11 07:53 PM No
681 Zystrophys Veteran 50 11d 5h 58m 2013-06-25 12:30 AM 2020-04-25 08:58 PM No
682 LORDReekus Veteran 88 24d 2h 10m 2013-06-24 05:32 PM 2018-01-11 09:00 PM No
683 3mpire Veteran 99 44d 21h 19m 2013-06-23 11:16 PM 2020-03-11 09:17 PM No
684 veriditas Member 38 7d 15h 21m 2013-06-22 05:30 AM 2020-03-27 01:03 AM No
685 Bloodeus Veteran 67 52d 16h 15m 2013-06-21 08:53 AM 2019-12-05 01:38 AM No
686 MisterDaemon Veteran 38 72d 14h 50m 2013-06-20 04:49 PM 2020-03-27 05:49 PM No
687 PIZZADUDEdriver Staff 100 121d 15h 7m 2013-06-19 11:49 PM Yesterday 08:05 PM No
688 Shaddowze Veteran 56 130d 10h 22m 2013-06-19 05:55 AM 2020-05-29 11:18 PM No
689 Undivide Veteran 83 44d 17h 55m 2013-06-16 10:16 PM 2015-08-26 06:31 PM No
690 FearlessLederhosen Veteran 106 83d 9h 42m 2013-06-16 08:27 PM 2017-08-18 09:17 AM No
691 rabidpenguin77 Veteran 86 36d 20h 13m 2013-06-13 06:59 PM 2019-10-18 10:40 PM No
692 Fiskeertonz Veteran 52 13d 20h 58m 2013-06-09 09:31 PM 2019-11-23 09:04 PM No
693 JimmieTrash Auraxium Soldier 40 87d 2h 26m 2013-06-09 02:39 AM 2020-04-17 04:29 PM No
694 crafter Member 64 21d 4h 3m 2013-06-05 11:02 PM 2020-04-22 03:14 PM No
695 Sithrawyn Veteran 90 32d 9h 50m 2013-06-03 10:31 PM 2020-03-30 05:48 PM No
696 Bleble500 Member 42 9d 10h 27m 2013-05-30 05:47 PM 2020-03-12 12:08 AM No
697 Koguson Veteran 100 47d 7h 21m 2013-05-29 05:50 AM 2019-11-30 05:34 PM No
698 Kiluminatii Veteran 78 43d 17h 32m 2013-05-26 05:16 PM 2017-01-22 01:06 AM No
699 WhitMaverick Veteran 100 44d 21h 25m 2013-05-19 03:34 AM 2019-07-17 11:53 AM No
700 Vhades Veteran 89 38d 16h 54m 2013-05-17 03:43 AM 2016-05-02 06:17 PM No
701 EsDee Veteran 56 72d 13h 21m 2013-05-04 05:06 AM Today 02:18 AM No
702 GammaKappaMu Veteran 83 43d 3h 0m 2013-04-19 12:36 AM 2020-04-03 05:24 PM No
703 TheGorge Veteran 100 94d 13h 6m 2013-04-16 09:44 PM 2019-11-23 08:57 PM No
704 ShadowX015 Veteran 109 88d 9h 6m 2013-04-13 02:37 AM 2017-11-18 09:03 PM No
705 LunamariaHawk Veteran 74 26d 6h 54m 2013-04-10 03:59 PM 2020-03-20 07:18 PM No
706 LividThoughts Veteran 120 136d 15h 40m 2013-03-22 09:15 PM 2019-11-23 09:05 PM No
707 KottonmouthKings Veteran 47 10d 7h 53m 2013-03-17 07:22 PM 2019-04-09 08:07 PM No
708 Chironius2 Veteran 83 42d 19h 24m 2013-03-02 04:35 AM 2016-12-10 05:31 PM No
709 MasterSgtStriker Command 100 77d 14h 25m 2013-03-01 09:12 PM Yesterday 08:37 PM No
710 WesleyGibson Veteran 84 31d 17h 47m 2013-02-24 02:18 PM 2015-12-15 12:40 PM No
711 xCidx Veteran 56 16d 15h 29m 2013-02-23 12:08 AM 2017-02-18 10:03 PM No
712 Winky Emeritus 91 40d 22h 9m 2013-02-17 11:38 PM 2015-08-10 10:08 PM No
713 RedolentBastard Command 71 110d 6h 53m 2013-02-15 03:56 AM Yesterday 05:22 PM No
714 Calvis91 Veteran 100 62d 11h 11m 2013-02-12 11:38 PM 2020-04-05 08:38 PM No
715 Undercow Veteran 100 47d 3h 51m 2013-02-04 11:26 AM 2016-05-08 06:10 PM No
716 BlackMM Veteran 67 93d 0h 21m 2013-01-30 10:43 AM Yesterday 09:40 AM No
717 Argl Veteran 76 30d 20h 42m 2013-01-25 10:25 PM 2020-03-19 11:18 AM No
718 sI0wburn Veteran 92 50d 15h 37m 2013-01-24 08:31 AM 2020-05-23 08:56 PM No
719 Gasterv Veteran 100 89d 5h 36m 2013-01-24 05:05 AM 2015-10-05 01:18 AM No
720 JJTHEGREAT Veteran 63 25d 19h 35m 2013-01-24 01:06 AM 2020-04-09 10:07 PM No
721 VancouverKali Veteran 70 32d 5h 50m 2013-01-19 07:44 PM 2019-08-31 10:57 PM No
722 TacJack Veteran 95 36d 20h 12m 2013-01-19 06:51 PM 2016-05-01 11:36 PM No
723 ThatOneGuyisBoss Veteran 49 18d 2h 38m 2013-01-19 03:53 PM 2019-06-08 05:35 PM No
724 Cyso Veteran 111 163d 18h 36m 2013-01-18 07:53 AM 2020-05-25 05:15 PM No
725 YonV Command 29 90d 8h 23m 2013-01-18 07:26 AM Yesterday 04:59 PM No
726 JaredTheHammer Member 67 21d 7h 10m 2013-01-15 02:34 PM 2019-05-06 06:19 PM No
727 Bjourk Command 101 57d 18h 40m 2013-01-15 01:28 AM 2019-11-23 06:32 PM No
728 Jdog10 Command 50 13d 12h 16m 2013-01-14 01:10 AM 2019-11-23 08:04 PM No
729 AgentVisor Veteran 109 152d 2h 38m 2013-01-13 11:34 PM 2020-04-29 09:04 PM No
730 ScoobaSteeve Veteran 44 57d 6h 23m 2013-01-13 08:17 PM 2020-05-27 11:39 AM No
731 ThePhD Veteran 85 30d 15h 34m 2013-01-13 07:12 AM 2017-04-15 04:24 PM No
732 BoredAccountant Veteran 67 18d 22h 21m 2013-01-12 06:52 PM 2019-07-06 02:18 PM No
733 GuyGardner Veteran 67 68d 11h 25m 2013-01-12 11:58 AM 2020-05-23 07:51 PM No
734 Faxon Advisor 100 163d 11h 30m 2013-01-12 10:21 AM 2020-05-08 09:22 PM No
735 Baelzebub Emeritus 52 20d 19h 27m 2013-01-12 08:49 AM 2015-09-26 11:42 PM No
736 Triptocon Veteran 100 52d 19h 4m 2013-01-11 11:30 PM 2017-06-24 01:56 AM No
737 MrWalterWhite Command 100 69d 15h 36m 2013-01-11 11:06 PM 2018-01-19 11:08 PM No
738 Phrakshun Veteran 42 14d 0h 44m 2013-01-11 10:09 PM 2020-02-15 10:06 PM No
739 ShinSagat Veteran 44 58d 3h 21m 2013-01-11 10:05 PM 2020-05-09 08:25 PM No
740 slatter1 Command 100 209d 15h 28m 2013-01-11 10:00 PM Today 03:44 AM No
741 NovaGhost Command 109 101d 10h 1m 2013-01-11 09:35 PM 2020-03-23 09:56 PM No
742 Blind3ye Veteran 100 107d 7h 27m 2013-01-11 09:22 PM 2017-05-31 02:29 AM No
743 scarecrow357 Command 87 44d 11h 48m 2013-01-11 08:18 PM 2018-01-11 08:33 PM No
744 IKILLYOU14ALL Veteran 103 132d 1h 37m 2013-01-11 07:50 PM 2018-06-27 09:11 PM No
745 Heraklitus Veteran 98 41d 22h 31m 2013-01-11 07:44 PM 2017-05-27 02:11 AM No
746 ZainZalon Veteran 62 29d 1h 5m 2013-01-11 07:31 PM 2018-03-24 06:27 PM No
747 MasTapy Command 102 114d 10h 2m 2013-01-11 07:20 PM 2020-03-11 09:52 PM No


All times are GMT -5. The time now is 08:47 AM.

Content © 2002-2013, PlanetSide-Universe.com, All rights reserved.
PlanetSide and the SOE logo are registered trademarks of Sony Online Entertainment Inc. © 2004 Sony Online Entertainment Inc. All rights reserved.
All other trademarks or tradenames are properties of their respective owners.
Powered by vBulletin
Copyright ©2000 - 2020, Jelsoft Enterprises Ltd.